Impacts METAR Board INFO
IDs:

KMIA - Miami Intl, FL, US

Updated at: 2029 UTC 18 Dec 2017
Potential Impact None Slight Moderate High
Time18/08Z 18/09Z 18/10Z 18/11Z 18/12Z 18/13Z 18/14Z 18/15Z 18/16Z 18/17Z 18/18Z 18/19Z 18/20Z
VIS10 10 10 10 7 10 10 10 10 10 10 10 10
CIG250 250 250 250 -- -- 250 300 300 300 24 25 25
CoverBKNBKNBKNBKNSCTSCTBKNBKNBKNBKNBKNBKNBKN
FltCatVFRVFRVFRVFRVFRVFRVFRVFRVFRVFRMVFRMVFRMVFR
WX--------------------------
WDir11090100000110110130120130150140
WSpd4 3 3 0 0 0 4 9 7 6 9 9 8
WGst-- -- -- -- -- -- -- -- -- -- -- -- --
Raw hourly METARs
KMIA 180753Z 11004KT 10SM FEW040 FEW055 BKN250 23/21 A3019 RMK AO2 SLP222 T02280211
KMIA 180853Z 09003KT 10SM FEW020 FEW055 BKN250 23/21 A3019 RMK AO2 SLP224 T02280211 55004
KMIA 180953Z 10003KT 10SM FEW020 FEW055 BKN250 22/21 A3020 RMK AO2 SLP225 T02220211
KMIA 181053Z 00000KT 10SM FEW019 FEW055 BKN250 22/21 A3021 RMK AO2 SLP229 T02220211
KMIA 181153Z 00000KT 7SM FEW019 SCT250 21/20 A3022 RMK AO2 SLP232 T02060200 10239 20206 53008
KMIA 181253Z 00000KT 10SM FEW020 SCT250 23/22 A3022 RMK AO2 SLP233 T02280217 $
KMIA 181353Z 11004KT 10SM FEW020 BKN250 25/22 A3024 RMK AO2 SLP239 T02500217 $
KMIA 181453Z 11009KT 10SM SCT022 BKN300 26/21 A3024 RMK AO2 SLP241 T02610211 53009
KMIA 181553Z 13007KT 10SM SCT023 BKN300 26/21 A3024 RMK AO2 SLP240 T02610206
KMIA 181653Z 12006KT 10SM SCT024 BKN300 27/21 A3022 RMK AO2 SLP235 T02720206
KMIA 181753Z 13009KT 10SM BKN024 BKN300 29/21 A3020 RMK AO2 SLP228 T02890206 10289 20206 58013
KMIA 181853Z 15009KT 10SM BKN025 BKN300 28/21 A3018 RMK AO2 SLP220 T02780206
KMIA 181953Z 14008KT 10SM BKN025 BKN300 27/21 A3018 RMK AO2 SLP219 T02670211